Time;durP1;ratioP1;P1;durP2;ratioP2;P2;SDS_P1;SDS_P2;PMS_P1;PMS_P2;Temp;Humidity;BMP_temperature;BMP_pressure;BME280_temperature;BME280_humidity;BME280_pressure;Samples;Min_cycle;Max_cycle;Signal;HPM_P1;HPM_P2
2022/09/23 00:01:00;;;;;;;6.58;5.25;;;;;;;10.52;100.00;99532.31;1756701;80;21018;-77
2022/09/23 00:03:29;;;;;;;5.62;5.12;;;;;;;10.48;100.00;99529.86;1769845;80;21006;-74
2022/09/23 00:06:01;;;;;;;10.20;5.22;;;;;;;10.45;100.00;99527.69;1776146;80;20978;-78
2022/09/23 00:08:28;;;;;;;7.83;6.10;;;;;;;10.43;100.00;99535.18;1752806;81;20995;-73
2022/09/23 00:10:55;;;;;;;5.05;4.60;;;;;;;10.41;100.00;99526.02;1755521;81;21085;-79
2022/09/23 00:13:23;;;;;;;5.85;5.10;;;;;;;10.43;100.00;99532.48;1768312;80;20919;-81
2022/09/23 00:15:51;;;;;;;5.62;5.12;;;;;;;10.44;100.00;99527.40;1762355;81;21547;-77
2022/09/23 00:18:19;;;;;;;6.85;5.37;;;;;;;10.47;100.00;99526.88;1767784;80;20931;-84
2022/09/23 00:20:47;;;;;;;5.78;4.97;;;;;;;10.49;100.00;99522.08;1747629;81;21090;-72
2022/09/23 00:23:14;;;;;;;5.35;4.85;;;;;;;10.50;100.00;99523.70;1755163;80;20931;-74
2022/09/23 00:25:41;;;;;;;14.10;5.67;;;;;;;10.49;100.00;99518.86;1755327;81;21116;-76
2022/09/23 00:28:07;;;;;;;9.18;5.70;;;;;;;10.48;100.00;99519.91;1755768;80;21122;-71
2022/09/23 00:30:34;;;;;;;8.18;5.47;;;;;;;10.46;100.00;99518.53;1732993;81;22274;-75
2022/09/23 00:33:01;;;;;;;7.53;5.58;;;;;;;10.47;100.00;99515.59;1715053;81;22264;-74
2022/09/23 00:35:27;;;;;;;11.10;5.15;;;;;;;10.48;100.00;99518.58;1756042;81;21026;-82
2022/09/23 00:37:55;;;;;;;8.93;5.53;;;;;;;10.50;100.00;99518.33;1759996;80;20975;-77
2022/09/23 00:40:21;;;;;;;8.33;7.15;;;;;;;10.49;100.00;99517.52;1774113;80;21054;-73
2022/09/23 00:42:48;;;;;;;6.62;5.53;;;;;;;10.49;100.00;99519.39;1768838;80;21152;-70
2022/09/23 00:45:16;;;;;;;6.05;5.55;;;;;;;10.52;100.00;99516.18;1760769;80;21081;-72
2022/09/23 00:47:52;;;;;;;8.03;4.75;;;;;;;10.55;100.00;99512.19;1780098;80;21041;-71
2022/09/23 00:50:38;;;;;;;6.75;6.25;;;;;;;10.56;100.00;99512.45;1780009;80;21014;-69
2022/09/23 00:53:09;;;;;;;6.25;5.45;;;;;;;10.55;100.00;99514.88;1781343;80;21013;-71
2022/09/23 00:55:47;;;;;;;6.85;5.80;;;;;;;10.49;100.00;99504.07;1766378;80;21519;-70
2022/09/23 00:58:18;;;;;;;5.35;4.92;;;;;;;10.47;100.00;99512.91;1740572;80;20946;-74
2022/09/23 01:00:45;;;;;;;5.40;4.90;;;;;;;10.46;100.00;99508.59;1773872;79;20950;-72
2022/09/23 01:03:13;;;;;;;8.68;6.10;;;;;;;10.48;100.00;99511.85;1778745;79;21574;-73
2022/09/23 01:05:41;;;;;;;6.65;6.05;;;;;;;10.48;100.00;99507.81;1795443;79;21046;-72
2022/09/23 01:08:09;;;;;;;5.87;5.37;;;;;;;10.52;100.00;99515.37;1792969;79;21025;-74
2022/09/23 01:10:53;;;;;;;7.30;6.53;;;;;;;10.57;100.00;99516.77;1760652;79;21055;-74
2022/09/23 01:13:52;;;;;;;8.40;6.35;;;;;;;10.62;100.00;99516.28;1765071;80;21131;-74
2022/09/23 01:16:31;;;;;;;6.65;6.10;;;;;;;10.62;100.00;99513.59;1757812;79;21046;-75
2022/09/23 01:19:24;;;;;;;9.38;6.62;;;;;;;10.66;100.00;99516.58;1769503;79;21006;-73
2022/09/23 01:22:18;;;;;;;6.75;6.10;;;;;;;10.67;100.00;99519.02;1777258;79;21050;-74
2022/09/23 01:25:09;;;;;;;6.67;6.08;;;;;;;10.70;100.00;99513.13;1789291;79;21045;-72
2022/09/23 01:28:01;;;;;;;6.33;5.80;;;;;;;10.72;100.00;99512.35;1765937;79;21574;-75
2022/09/23 01:30:58;;;;;;;6.85;6.22;;;;;;;10.77;100.00;99508.89;1791676;79;20995;-72
2022/09/23 01:33:36;;;;;;;7.28;6.58;;;;;;;10.79;100.00;99512.16;1786798;79;20993;-75
2022/09/23 01:36:22;;;;;;;6.47;5.92;;;;;;;10.81;100.00;99508.66;1794258;79;21096;-74
2022/09/23 01:39:10;;;;;;;6.33;5.75;;;;;;;10.81;100.00;99505.97;1792913;79;21132;-76
2022/09/23 01:41:52;;;;;;;7.37;6.58;;;;;;;10.83;100.00;99511.92;1769167;79;20994;-75
2022/09/23 01:44:29;;;;;;;7.90;6.40;;;;;;;10.85;100.00;99505.20;1747161;79;21054;-74
2022/09/23 01:47:09;;;;;;;7.42;6.70;;;;;;;10.88;100.00;99503.89;1793870;79;21039;-76
2022/09/23 01:49:52;;;;;;;6.30;5.75;;;;;;;10.91;100.00;99510.09;1763264;79;21037;-74
2022/09/23 01:52:43;;;;;;;13.20;7.75;;;;;;;10.96;100.00;99506.63;1779230;79;21145;-75
2022/09/23 01:55:22;;;;;;;7.72;6.92;;;;;;;11.00;100.00;99503.70;1783487;79;21093;-77
2022/09/23 01:57:53;;;;;;;7.75;7.10;;;;;;;11.00;100.00;99507.20;1756509;79;21031;-77
2022/09/23 02:00:21;;;;;;;7.20;6.50;;;;;;;11.02;100.00;99501.05;1741791;79;21558;-77
2022/09/23 02:02:59;;;;;;;8.05;7.03;;;;;;;11.04;100.00;99500.77;1734451;81;21040;-75
2022/09/23 02:05:39;;;;;;;7.83;7.08;;;;;;;11.01;100.00;99499.95;1755995;81;21273;-77
2022/09/23 02:08:11;;;;;;;7.20;6.50;;;;;;;11.01;100.00;99502.64;1755926;80;21018;-76
2022/09/23 02:10:48;;;;;;;13.05;7.20;;;;;;;11.05;100.00;99500.52;1766977;80;20915;-76
2022/09/23 02:13:28;;;;;;;5.70;5.08;;;;;;;11.11;100.00;99498.16;1775342;80;21089;-75
2022/09/23 02:15:59;;;;;;;11.25;6.30;;;;;;;11.20;100.00;99494.44;1786417;80;21237;-75
2022/09/23 02:18:33;;;;;;;9.00;7.37;;;;;;;11.25;100.00;99497.98;1792696;80;21088;-75
2022/09/23 02:21:04;;;;;;;8.65;7.05;;;;;;;11.23;100.00;99496.08;1792266;80;21540;-78
2022/09/23 02:23:39;;;;;;;8.08;6.55;;;;;;;11.24;100.00;99495.54;1756537;80;21100;-75
2022/09/23 02:26:33;;;;;;;6.33;5.80;;;;;;;11.25;100.00;99494.48;1755201;81;21041;-76
2022/09/23 02:29:40;;;;;;;6.78;6.03;;;;;;;11.25;100.00;99491.79;1759953;81;21586;-78
2022/09/23 02:32:34;;;;;;;6.90;6.30;;;;;;;11.27;100.00;99490.44;1758401;81;21182;-76
2022/09/23 02:35:16;;;;;;;7.72;6.30;;;;;;;11.25;100.00;99483.18;1746764;80;21073;-75
2022/09/23 02:38:30;;;;;;;5.53;5.08;;;;;;;11.29;100.00;99485.63;1792990;80;21124;-76
2022/09/23 02:41:15;;;;;;;;;;;;;;;11.26;100.00;99488.84;1795776;80;21055;-78
2022/09/23 02:44:11;;;;;;;11.45;6.37;;;;;;;11.18;100.00;99486.61;1736865;80;20248;-75
2022/09/23 02:46:42;;;;;;;7.17;6.28;;;;;;;11.14;100.00;99486.05;1787263;80;21199;-78
2022/09/23 02:49:31;;;;;;;7.97;6.05;;;;;;;11.12;100.00;99488.20;1769172;80;20947;-78
2022/09/23 02:52:03;;;;;;;6.65;5.97;;;;;;;11.11;100.00;99487.92;1768795;80;21494;-76
2022/09/23 02:54:29;;;;;;;14.78;6.28;;;;;;;11.11;100.00;99487.92;1778194;80;21078;-78
2022/09/23 02:56:56;;;;;;;8.00;6.70;;;;;;;11.07;100.00;99494.36;1759843;80;21109;-77
2022/09/23 02:59:23;;;;;;;6.95;6.12;;;;;;;11.03;100.00;99485.16;1760295;81;21775;-78
2022/09/23 03:02:20;;;;;;;9.40;5.70;;;;;;;11.02;100.00;99493.50;1736857;81;21523;-77
2022/09/23 03:05:29;;;;;;;8.95;7.15;;;;;;;10.97;100.00;99491.59;1759392;80;21496;-77
2022/09/23 03:08:18;;;;;;;7.15;5.97;;;;;;;10.93;100.00;99488.58;1758372;81;21018;-79
2022/09/23 03:10:53;;;;;;;8.85;5.95;;;;;;;10.93;100.00;99487.23;1758553;80;21011;-75
2022/09/23 03:13:45;;;;;;;6.25;5.75;;;;;;;10.94;100.00;99484.01;1759499;81;21190;-78
2022/09/23 03:16:36;;;;;;;8.13;5.50;;;;;;;10.92;100.00;99484.28;1731434;82;21234;-77
2022/09/23 03:19:40;;;;;;;8.78;5.90;;;;;;;10.92;100.00;99490.20;1706825;82;21088;-77
2022/09/23 03:22:22;;;;;;;8.13;6.12;;;;;;;10.89;100.00;99487.47;1733911;82;20995;-76
2022/09/23 03:24:48;;;;;;;13.75;5.67;;;;;;;10.82;100.00;99494.96;1697105;82;21521;-79
2022/09/23 03:27:18;;;;;;;7.65;6.22;;;;;;;10.78;100.00;99491.70;1705601;83;21109;-78
2022/09/23 03:29:49;;;;;;;7.08;6.45;;;;;;;10.73;100.00;99493.81;1707954;83;21053;-76
2022/09/23 03:32:19;;;;;;;6.67;6.12;;;;;;;10.71;100.00;99491.89;1727137;83;21054;-74
2022/09/23 03:34:49;;;;;;;6.50;5.90;;;;;;;10.73;100.00;99488.42;1725990;81;21065;-75
2022/09/23 03:37:40;;;;;;;7.25;6.55;;;;;;;10.73;100.00;99489.77;1745198;80;21034;-75
2022/09/23 03:40:18;;;;;;;7.60;6.58;;;;;;;10.77;100.00;99498.13;1701197;82;21792;-75
2022/09/23 03:42:50;;;;;;;7.83;7.12;;;;;;;10.84;100.00;99492.81;1696531;84;21624;-76
2022/09/23 03:45:19;;;;;;;6.87;6.28;;;;;;;10.87;100.00;99494.19;1718587;81;21078;-76
2022/09/23 03:47:48;;;;;;;7.53;6.42;;;;;;;10.86;100.00;99490.69;1758210;81;21008;-76
2022/09/23 03:50:19;;;;;;;6.47;5.90;;;;;;;10.88;100.00;99489.91;1713989;82;58167;-74
2022/09/23 03:52:49;;;;;;;6.33;5.47;;;;;;;10.91;100.00;99492.08;1669626;83;21270;-76
2022/09/23 03:55:18;;;;;;;6.08;5.53;;;;;;;10.91;100.00;99487.22;1722300;83;21096;-75
2022/09/23 03:57:46;;;;;;;8.78;6.80;;;;;;;10.85;100.00;99486.90;1735636;82;21117;-77
2022/09/23 04:00:13;;;;;;;7.40;6.20;;;;;;;10.82;100.00;99494.14;1722014;83;21069;-75
2022/09/23 04:02:41;;;;;;;7.33;6.65;;;;;;;10.79;100.00;99490.63;1696066;83;21058;-76
2022/09/23 04:05:08;;;;;;;6.97;6.28;;;;;;;10.79;100.00;99491.42;1702208;84;21527;-75
2022/09/23 04:07:35;;;;;;;7.20;6.50;;;;;;;10.79;100.00;99493.33;1696833;83;21337;-76
2022/09/23 04:10:05;;;;;;;8.48;6.22;;;;;;;10.77;100.00;99498.95;1691950;82;21131;-75
2022/09/23 04:12:32;;;;;;;8.70;5.92;;;;;;;10.80;100.00;99505.16;1711119;83;21110;-74
2022/09/23 04:15:01;;;;;;;8.90;5.70;;;;;;;10.82;100.00;99507.59;1662591;83;22230;-77
2022/09/23 04:17:29;;;;;;;8.50;6.67;;;;;;;10.84;100.00;99501.41;1711669;83;21154;-78
2022/09/23 04:19:56;;;;;;;7.78;7.17;;;;;;;10.88;100.00;99501.20;1711518;82;21681;-80
2022/09/23 04:22:25;;;;;;;8.95;6.92;;;;;;;10.91;100.00;99502.84;1739649;81;21062;-82
2022/09/23 04:24:55;;;;;;;8.18;7.47;;;;;;;10.90;100.00;99503.90;1701587;84;21085;-78
2022/09/23 04:27:23;;;;;;;7.42;6.67;;;;;;;10.88;100.00;99500.67;1729407;82;21721;-78
2022/09/23 04:29:50;;;;;;;11.80;6.67;;;;;;;10.85;100.00;99503.04;1705258;82;21226;-79
2022/09/23 04:32:17;;;;;;;6.80;5.97;;;;;;;10.84;100.00;99502.75;1728351;82;21046;-78
2022/09/23 04:34:44;;;;;;;10.48;6.33;;;;;;;10.78;100.00;99509.99;1726411;82;21049;-77
2022/09/23 04:37:11;;;;;;;7.78;6.97;;;;;;;10.75;100.00;99515.05;1703328;82;21058;-74
2022/09/23 04:39:38;;;;;;;7.78;7.08;;;;;;;10.81;100.00;99506.78;1726876;83;21129;-76
2022/09/23 04:42:06;;;;;;;7.22;6.62;;;;;;;10.89;100.00;99504.95;1708291;82;21532;-78
2022/09/23 04:44:34;;;;;;;8.23;7.35;;;;;;;10.98;100.00;99514.74;1696454;84;21055;-77
2022/09/23 04:47:03;;;;;;;8.13;7.45;;;;;;;10.98;100.00;99513.93;1702327;84;20975;-75
2022/09/23 04:49:32;;;;;;;12.60;8.30;;;;;;;10.97;100.00;99513.64;1673169;84;21031;-77
2022/09/23 04:52:01;;;;;;;8.58;6.65;;;;;;;10.95;100.00;99512.55;1709123;82;20911;-80
2022/09/23 04:54:30;;;;;;;8.23;7.17;;;;;;;10.92;100.00;99512.54;1708044;84;21582;-76
2022/09/23 04:56:57;;;;;;;8.68;7.65;;;;;;;10.90;100.00;99515.19;1706783;84;21038;-76
2022/09/23 04:59:26;;;;;;;7.05;6.45;;;;;;;10.88;100.00;99512.78;1704849;82;21090;-78
2022/09/23 05:01:54;;;;;;;9.63;7.87;;;;;;;10.93;100.00;99509.31;1705045;83;21092;-77
2022/09/23 05:04:23;;;;;;;8.55;7.67;;;;;;;10.93;100.00;99510.09;1673590;84;21031;-75
2022/09/23 05:06:52;;;;;;;9.73;7.30;;;;;;;10.94;100.00;99512.26;1704825;83;21381;-77
2022/09/23 05:09:20;;;;;;;9.18;8.35;;;;;;;10.95;100.00;99508.51;1705268;84;20942;-75
2022/09/23 05:11:47;;;;;;;10.65;7.85;;;;;;;10.91;100.00;99514.95;1650058;83;21074;-76
2022/09/23 05:14:13;;;;;;;11.88;7.58;;;;;;;10.88;100.00;99512.78;1702607;84;21089;-76
2022/09/23 05:16:40;;;;;;;11.12;9.03;;;;;;;10.86;100.00;99510.86;1685887;83;21049;-74
2022/09/23 05:19:07;;;;;;;8.70;7.72;;;;;;;10.88;100.00;99510.09;1685578;83;22222;-73
2022/09/23 05:21:37;;;;;;;11.75;8.60;;;;;;;10.89;100.00;99508.99;1693089;83;21398;-74
2022/09/23 05:24:04;;;;;;;10.63;8.43;;;;;;;10.93;100.00;99511.45;1662638;83;21054;-76
2022/09/23 05:26:31;;;;;;;10.40;9.40;;;;;;;10.94;100.00;99512.26;1711847;83;21126;-74
2022/09/23 05:28:58;;;;;;;12.70;8.83;;;;;;;10.95;100.00;99505.81;1685654;83;21133;-74
2022/09/23 05:31:28;;;;;;;12.25;9.35;;;;;;;10.96;100.00;99510.67;1711740;83;21422;-74
2022/09/23 05:34:01;;;;;;;12.25;8.63;;;;;;;10.93;100.00;99508.75;1710922;82;21129;-75
2022/09/23 05:36:32;;;;;;;9.48;8.48;;;;;;;10.91;100.00;99508.75;1731036;82;21012;-75
2022/09/23 05:39:02;;;;;;;9.85;8.85;;;;;;;10.88;100.00;99514.13;1743078;82;21692;-77
2022/09/23 05:41:29;;;;;;;8.45;7.65;;;;;;;10.88;100.00;99513.31;1724151;82;21674;-75
2022/09/23 05:43:56;;;;;;;11.45;9.33;;;;;;;10.89;100.00;99514.38;1686153;83;21107;-74
2022/09/23 05:46:26;;;;;;;10.00;9.03;;;;;;;10.96;100.00;99513.36;1686312;83;20999;-76
2022/09/23 05:48:55;;;;;;;14.07;8.45;;;;;;;11.03;100.00;99510.72;1712886;83;21409;-74
2022/09/23 05:51:25;;;;;;;11.30;9.88;;;;;;;11.07;100.00;99516.42;1685712;83;21069;-76
2022/09/23 05:53:53;;;;;;;9.48;8.58;;;;;;;11.09;100.00;99512.92;1711969;83;21633;-77
2022/09/23 05:56:22;;;;;;;10.90;9.80;;;;;;;11.10;100.00;99518.05;1714542;82;21133;-77
2022/09/23 05:58:50;;;;;;;9.05;8.15;;;;;;;11.09;100.00;99512.92;1717798;82;21618;-76
2022/09/23 06:01:20;;;;;;;13.03;9.55;;;;;;;11.12;100.00;99515.94;1726762;82;20986;-77
2022/09/23 06:03:47;;;;;;;9.78;8.88;;;;;;;11.08;100.00;99509.98;1711935;81;21614;-78
2022/09/23 06:06:24;;;;;;;10.70;9.60;;;;;;;11.12;100.00;99513.77;1713512;82;20970;-76
2022/09/23 06:08:53;;;;;;;10.15;9.03;;;;;;;11.19;100.00;99515.16;1670830;83;21042;-77
2022/09/23 06:11:21;;;;;;;10.32;9.33;;;;;;;11.18;100.00;99517.57;1684932;83;21605;-76
2022/09/23 06:13:49;;;;;;;11.43;9.48;;;;;;;11.16;100.00;99514.88;1685651;83;21515;-76
2022/09/23 06:16:16;;;;;;;10.65;9.10;;;;;;;11.12;100.00;99512.42;1685595;83;21563;-77
2022/09/23 06:18:46;;;;;;;10.60;9.53;;;;;;;11.12;100.00;99517.28;1700027;82;21599;-78
2022/09/23 06:21:17;;;;;;;13.05;9.58;;;;;;;11.18;100.00;99518.91;1742596;82;21196;-78
2022/09/23 06:23:44;;;;;;;12.40;8.63;;;;;;;11.24;100.00;99519.77;1716292;82;21597;-80
2022/09/23 06:26:15;;;;;;;10.85;9.75;;;;;;;11.31;100.00;99520.37;1697629;82;21123;-80
2022/09/23 06:28:44;;;;;;;11.08;9.68;;;;;;;11.34;100.00;99530.09;1685815;83;21022;-77
2022/09/23 06:31:15;;;;;;;13.38;9.85;;;;;;;11.37;100.00;99528.73;1711877;83;21106;-79
2022/09/23 06:33:48;;;;;;;13.55;10.45;;;;;;;11.42;100.00;99526.08;1712022;83;21311;-80
2022/09/23 06:36:15;;;;;;;10.23;9.20;;;;;;;11.45;100.00;99529.63;1721959;82;21074;-79
2022/09/23 06:38:47;;;;;;;9.48;8.58;;;;;;;11.46;100.00;99525.05;1737785;82;21081;-82
2022/09/23 06:41:14;;;;;;;12.23;9.63;;;;;;;11.45;100.00;99526.94;1717474;82;21559;-78
2022/09/23 06:43:47;;;;;;;10.78;9.65;;;;;;;11.47;100.00;99520.73;1687035;83;21053;-81
2022/09/23 06:46:15;;;;;;;12.13;8.80;;;;;;;11.54;100.00;99525.91;1712001;83;21171;-81
2022/09/23 06:48:44;;;;;;;8.68;7.78;;;;;;;11.57;100.00;99521.33;1662587;83;21613;-79
2022/09/23 06:51:17;;;;;;;8.85;7.42;;;;;;;11.59;100.00;99521.90;1712293;82;21069;-77
2022/09/23 06:53:51;;;;;;;7.33;6.50;;;;;;;11.57;100.00;99524.84;1711815;82;21121;-79
2022/09/23 06:56:27;;;;;;;11.05;6.17;;;;;;;11.54;100.00;99522.68;1700224;83;20942;-83
2022/09/23 06:58:59;;;;;;;6.10;5.08;;;;;;;11.50;100.00;99520.77;1709366;82;21178;-80
2022/09/23 07:01:26;;;;;;;6.30;4.80;;;;;;;11.45;100.00;99521.55;1700526;83;21071;-81
2022/09/23 07:03:53;;;;;;;5.75;5.25;;;;;;;11.43;100.00;99522.86;1702814;83;21535;-78
2022/09/23 07:06:21;;;;;;;5.20;4.70;;;;;;;11.40;100.00;99524.20;1681992;83;21014;-81
2022/09/23 07:08:52;;;;;;;5.87;5.37;;;;;;;11.38;100.00;99527.15;1730833;82;21010;-81
2022/09/23 07:11:21;;;;;;;6.75;5.42;;;;;;;11.40;100.00;99527.43;1696721;83;21240;-76
2022/09/23 07:13:48;;;;;;;7.37;6.67;;;;;;;11.37;100.00;99524.17;1632926;85;21053;-79
2022/09/23 07:16:16;;;;;;;5.05;4.62;;;;;;;11.31;100.00;99517.15;1701833;84;21554;-76
2022/09/23 07:18:44;;;;;;;4.65;4.28;;;;;;;11.28;100.00;99519.52;1701806;84;21027;-79
2022/09/23 07:21:16;;;;;;;5.42;4.90;;;;;;;11.24;100.00;99517.89;1690986;82;21263;-80
2022/09/23 07:23:48;;;;;;;5.28;4.78;;;;;;;11.23;100.00;99518.95;1701204;83;21509;-80
2022/09/23 07:26:15;;;;;;;5.67;5.08;;;;;;;11.24;100.00;99516.55;1701043;83;21026;-80
2022/09/23 07:28:44;;;;;;;5.35;4.85;;;;;;;11.27;100.00;99516.02;1679314;84;21575;-81
2022/09/23 07:31:16;;;;;;;5.60;5.10;;;;;;;11.32;100.00;99517.94;1696162;83;21555;-80
2022/09/23 07:33:43;;;;;;;5.12;4.70;;;;;;;11.36;100.00;99520.41;1699809;83;21019;-78
2022/09/23 07:36:18;;;;;;;4.05;3.58;;;;;;;11.31;100.00;99514.98;1710258;82;21072;-81
2022/09/23 07:38:48;;;;;;;5.67;5.17;;;;;;;11.29;100.00;99520.63;1705855;83;21065;-80
2022/09/23 07:41:16;;;;;;;3.60;3.30;;;;;;;11.30;100.00;99516.05;1720385;82;20986;-77
2022/09/23 07:43:44;;;;;;;5.40;4.00;;;;;;;11.32;100.00;99509.86;1696955;84;21312;-79
2022/09/23 07:46:16;;;;;;;3.22;2.92;;;;;;;11.37;100.00;99507.20;1678359;84;21109;-81
2022/09/23 07:48:46;;;;;;;5.12;3.62;;;;;;;11.45;100.00;99501.88;1677107;83;22005;-78
2022/09/23 07:51:24;;;;;;;3.85;3.55;;;;;;;11.48;100.00;99501.35;1685521;83;21018;-80
2022/09/23 07:53:52;;;;;;;3.30;3.10;;;;;;;11.49;100.00;99498.94;1703850;84;21047;-78
2022/09/23 07:56:19;;;;;;;3.83;2.80;;;;;;;11.48;100.00;99499.47;1705235;83;21542;-78
2022/09/23 07:58:58;;;;;;;4.00;3.58;;;;;;;11.46;100.00;99498.94;1728550;82;20987;-80
2022/09/23 08:01:17;;;;;;;3.50;3.20;;;;;;;11.45;100.00;99491.92;1710795;82;21153;-79
2022/09/23 08:03:44;;;;;;;3.40;3.10;;;;;;;11.49;100.00;99496.25;1701468;83;20978;-79
2022/09/23 08:06:13;;;;;;;3.12;2.85;;;;;;;11.55;100.00;99494.69;1703304;82;21073;-79
2022/09/23 08:08:43;;;;;;;4.28;3.87;;;;;;;11.58;100.00;99485.25;1700027;83;21233;-80
2022/09/23 08:11:13;;;;;;;3.37;3.08;;;;;;;11.65;100.00;99493.39;1705241;82;22117;-79
2022/09/23 08:13:42;;;;;;;3.80;3.17;;;;;;;11.71;100.00;99497.71;1674204;83;21291;-80
2022/09/23 08:16:12;;;;;;;2.42;2.22;;;;;;;11.75;100.00;99492.63;1709282;83;21692;-82
2022/09/23 08:18:44;;;;;;;2.83;2.50;;;;;;;11.78;100.00;99494.83;1667272;84;21086;-83
2022/09/23 08:21:11;;;;;;;4.28;3.50;;;;;;;11.82;100.00;99493.75;1704481;83;20998;-78
2022/09/23 08:23:41;;;;;;;4.28;3.87;;;;;;;11.81;100.00;99491.59;1679827;83;21074;-80
2022/09/23 08:26:08;;;;;;;4.58;3.90;;;;;;;11.80;100.00;99489.44;1688211;83;21887;-80
2022/09/23 08:28:36;;;;;;;3.58;3.27;;;;;;;11.77;100.00;99489.97;1730552;81;21070;-77
2022/09/23 08:31:06;;;;;;;6.28;5.53;;;;;;;11.79;100.00;99493.75;1661818;83;21003;-83
2022/09/23 08:33:38;;;;;;;3.95;3.65;;;;;;;11.75;100.00;99490.75;1717984;82;20993;-76
2022/09/23 08:36:05;;;;;;;3.33;3.00;;;;;;;11.77;100.00;99488.62;1702453;84;21118;-76
2022/09/23 08:38:32;;;;;;;4.00;3.40;;;;;;;11.89;100.00;99484.38;1705776;82;21499;-76
2022/09/23 08:41:24;;;;;;;3.95;3.65;;;;;;;12.02;100.00;99496.01;1709247;82;21587;-78
2022/09/23 08:43:57;;;;;;;4.22;3.85;;;;;;;12.17;100.00;99488.52;1727089;83;21544;-78
2022/09/23 08:46:38;;;;;;;5.97;4.60;;;;;;;12.30;100.00;99492.58;1729252;82;21097;-81
2022/09/23 08:49:06;;;;;;;5.08;4.67;;;;;;;12.39;100.00;99488.29;1662145;84;21078;-74
2022/09/23 08:51:45;;;;;;;5.58;4.95;;;;;;;12.41;100.00;99491.55;1701763;84;21176;-77
2022/09/23 08:54:12;;;;;;;4.80;4.15;;;;;;;12.45;100.00;99483.19;1735299;82;21569;-78
2022/09/23 08:56:42;;;;;;;4.72;4.30;;;;;;;12.46;100.00;99480.77;1676152;84;20954;-78
2022/09/23 08:59:27;;;;;;;5.80;5.28;;;;;;;12.49;100.00;99473.48;1702250;82;21050;-75
2022/09/23 09:02:03;;;;;;;5.67;5.15;;;;;;;12.46;100.00;99475.37;1714587;82;21583;-76
2022/09/23 09:04:43;;;;;;;4.22;3.70;;;;;;;12.52;100.00;99482.37;1680101;84;22349;-78
2022/09/23 09:07:14;;;;;;;10.13;4.40;;;;;;;12.59;100.00;99481.05;1695767;84;21055;-76
2022/09/23 09:09:57;;;;;;;3.47;3.17;;;;;;;12.61;100.00;99480.23;1714528;83;21040;-78
2022/09/23 09:12:35;;;;;;;4.78;4.37;;;;;;;12.58;99.85;99475.91;1782955;80;21015;-79
2022/09/23 09:15:21;;;;;;;3.77;3.47;;;;;;;12.54;99.30;99484.27;1783583;80;21007;-79
2022/09/23 09:18:06;;;;;;;5.05;4.55;;;;;;;12.53;99.54;99488.86;1751641;80;22234;-76
2022/09/23 09:20:58;;;;;;;5.08;4.33;;;;;;;12.52;99.68;99489.11;1762586;80;21066;-80
2022/09/23 09:23:46;;;;;;;4.65;4.00;;;;;;;12.55;99.94;99484.55;1779695;80;21050;-77
2022/09/23 09:26:26;;;;;;;4.17;3.70;;;;;;;12.64;99.96;99486.98;1759337;80;21057;-78
2022/09/23 09:29:27;;;;;;;4.00;3.70;;;;;;;12.62;97.03;99483.73;1702297;83;21087;-79
2022/09/23 09:31:56;;;;;;;4.35;4.00;;;;;;;12.56;96.65;99474.85;1693945;83;21455;-72
2022/09/23 09:34:41;;;;;;;3.42;3.12;;;;;;;12.64;97.44;99477.02;1659823;83;21046;-76
2022/09/23 09:37:40;;;;;;;3.75;3.40;;;;;;;12.78;98.51;99469.73;1692855;84;21107;-74
2022/09/23 09:40:12;;;;;;;7.15;4.47;;;;;;;12.88;97.13;99468.37;1736610;82;21053;-73
2022/09/23 09:42:40;;;;;;;4.22;3.92;;;;;;;12.97;95.75;99470.81;1693485;84;21053;-76
2022/09/23 09:45:22;;;;;;;5.67;5.17;;;;;;;12.99;95.56;99488.37;1705015;84;21220;-76
2022/09/23 09:48:16;;;;;;;4.70;4.30;;;;;;;12.95;94.29;99487.27;1757824;80;21061;-72
2022/09/23 09:50:51;;;;;;;4.83;4.40;;;;;;;12.80;94.36;99487.28;1785193;80;20939;-79
2022/09/23 09:53:33;;;;;;;5.40;4.40;;;;;;;12.64;94.65;99477.55;1782833;80;21035;-72
2022/09/23 09:56:06;;;;;;;5.20;4.72;;;;;;;12.48;94.69;99472.66;1778554;78;21047;-73
2022/09/23 09:58:42;;;;;;;4.97;4.58;;;;;;;12.37;95.45;99475.63;1773601;78;21052;-76
2022/09/23 10:01:07;;;;;;;5.37;4.87;;;;;;;12.32;96.36;99478.31;1784054;78;21006;-73
2022/09/23 10:03:39;;;;;;;6.05;5.33;;;;;;;12.24;96.92;99471.53;1773396;80;21035;-72
2022/09/23 10:06:21;;;;;;;6.78;6.08;;;;;;;12.22;98.12;99471.00;1751520;80;20975;-73
2022/09/23 10:08:52;;;;;;;4.80;4.40;;;;;;;12.24;99.13;99465.60;1751095;81;21059;-70
2022/09/23 10:11:19;;;;;;;5.92;5.35;;;;;;;12.26;100.00;99464.53;1732230;80;21272;-70
2022/09/23 10:14:17;;;;;;;6.83;3.98;;;;;;;12.30;100.00;99469.66;1722877;82;21034;-69
2022/09/23 10:16:45;;;;;;;6.50;4.60;;;;;;;12.31;100.00;99473.45;1708036;83;21038;-72
2022/09/23 10:19:27;;;;;;;4.72;4.33;;;;;;;12.29;100.00;99475.59;1732308;81;21013;-70
2022/09/23 10:21:59;;;;;;;4.30;3.80;;;;;;;12.29;99.61;99466.69;1712159;83;21066;-71
2022/09/23 10:24:31;;;;;;;4.58;3.33;;;;;;;12.27;98.63;99466.16;1725796;82;21058;-71
2022/09/23 10:27:06;;;;;;;3.65;3.33;;;;;;;12.24;97.40;99458.86;1737641;81;21010;-68
2022/09/23 10:29:47;;;;;;;4.08;3.67;;;;;;;12.27;97.49;99464.81;1722992;81;21114;-74
2022/09/23 10:32:36;;;;;;;4.35;3.80;;;;;;;12.29;97.47;99456.72;1676028;82;21101;-77
2022/09/23 10:35:12;;;;;;;4.05;3.62;;;;;;;12.33;97.87;99461.03;1703535;83;20959;-70
2022/09/23 10:37:43;;;;;;;4.15;3.70;;;;;;;12.34;97.80;99462.13;1727446;83;22626;-73
2022/09/23 10:46:41;;;;;;;;;;;;;;;12.44;98.23;99470.77;1730653;83;21069;-75
2022/09/23 10:49:34;;;;;;;3.58;3.25;;;;;;;12.53;98.05;99469.16;1712899;82;20239;-70
2022/09/23 10:52:22;;;;;;;4.10;3.75;;;;;;;12.59;97.84;99472.14;1725903;82;21574;-71
2022/09/23 10:54:59;;;;;;;4.92;4.03;;;;;;;12.57;97.13;99461.61;1726924;83;21005;-71
2022/09/23 10:57:51;;;;;;;4.70;4.25;;;;;;;12.62;97.68;99448.66;1727862;82;20990;-76
2022/09/23 11:00:36;;;;;;;5.50;3.95;;;;;;;12.65;98.01;99446.27;1727953;83;21574;-72
2022/09/23 11:03:45;;;;;;;4.53;4.10;;;;;;;12.71;98.58;99448.39;1728539;83;21026;-72
2022/09/23 11:06:30;;;;;;;5.10;4.70;;;;;;;12.76;99.05;99443.00;1723320;82;21025;-72
2022/09/23 11:09:28;;;;;;;5.75;4.33;;;;;;;12.83;99.32;99450.84;1732146;82;21115;-70
2022/09/23 11:12:10;;;;;;;6.15;5.55;;;;;;;12.91;99.52;99447.59;1742526;82;21069;-72
2022/09/23 11:14:57;;;;;;;5.17;4.78;;;;;;;12.97;99.62;99453.26;1681941;85;21558;-71
2022/09/23 11:17:58;;;;;;;5.35;4.45;;;;;;;12.98;99.20;99454.34;1742621;82;21069;-69
2022/09/23 11:20:40;;;;;;;8.33;5.70;;;;;;;12.99;98.71;99449.22;1716774;82;21136;-70
2022/09/23 11:23:35;;;;;;;4.50;4.08;;;;;;;13.03;98.67;99450.83;1737277;82;21546;-71
2022/09/23 11:26:37;;;;;;;5.05;4.53;;;;;;;13.13;98.81;99444.64;1743100;82;21049;-68
2022/09/23 11:29:43;;;;;;;3.45;3.12;;;;;;;13.24;98.31;99441.64;1742574;82;21054;-68
2022/09/23 11:32:37;;;;;;;5.28;3.98;;;;;;;13.32;97.11;99438.94;1741966;82;21128;-69
2022/09/23 11:35:31;;;;;;;4.67;4.12;;;;;;;13.39;96.24;99433.50;1679490;85;21877;-71
2022/09/23 11:38:26;;;;;;;3.87;3.58;;;;;;;13.44;94.25;99433.48;1712586;82;21014;-79
2022/09/23 11:40:59;;;;;;;4.40;3.60;;;;;;;13.55;93.22;99435.63;1712673;83;20970;-72
2022/09/23 11:43:28;;;;;;;3.55;3.25;;;;;;;13.65;91.68;99434.24;1713483;83;21097;-73
2022/09/23 11:46:23;;;;;;;3.95;3.65;;;;;;;13.79;91.64;99426.34;1712845;83;21093;-71
2022/09/23 11:49:14;;;;;;;2.85;2.65;;;;;;;13.93;90.00;99427.36;1713079;83;21131;-75
2022/09/23 11:52:02;;;;;;;2.17;1.98;;;;;;;14.02;88.65;99432.45;1718636;82;21543;-71
2022/09/23 11:54:43;;;;;;;2.83;2.47;;;;;;;14.01;83.12;99432.17;1742578;82;21005;-69
2022/09/23 11:57:27;;;;;;;2.85;1.98;;;;;;;13.95;81.50;99424.66;1717248;82;20989;-71
2022/09/23 11:59:59;;;;;;;1.85;1.75;;;;;;;13.98;82.27;99429.50;1741048;82;21538;-71
2022/09/23 12:03:09;;;;;;;2.83;2.55;;;;;;;14.04;82.11;99418.11;1729800;81;21753;-72
2022/09/23 12:05:46;;;;;;;2.42;1.72;;;;;;;14.11;81.21;99430.77;1703786;83;21114;-73
2022/09/23 12:08:31;;;;;;;1.50;1.40;;;;;;;14.16;80.80;99431.28;1677473;85;21515;-72
2022/09/23 12:11:20;;;;;;;1.95;1.85;;;;;;;14.21;80.06;99436.66;1683028;85;21085;-69